createdAt,value
2017-04-30T00:01:21.668Z,14.12
2017-04-30T00:03:49.969Z,13.82
2017-04-30T00:06:18.252Z,15.10
2017-04-30T00:08:46.561Z,14.53
2017-04-30T00:11:15.585Z,13.90
2017-04-30T00:13:43.877Z,14.38
2017-04-30T00:16:12.184Z,13.35
2017-04-30T00:18:40.472Z,12.15
2017-04-30T00:21:08.776Z,14.63
2017-04-30T00:23:37.807Z,11.70
2017-04-30T00:26:06.095Z,12.37
2017-04-30T00:28:34.431Z,11.68
2017-04-30T00:31:03.582Z,11.02
2017-04-30T00:33:31.899Z,11.12
2017-04-30T00:36:00.928Z,10.75
2017-04-30T00:38:29.223Z,11.32
2017-04-30T00:40:57.524Z,10.68
2017-04-30T00:43:25.809Z,11.52
2017-04-30T00:45:54.127Z,10.87
2017-04-30T00:48:22.484Z,10.73
2017-04-30T00:50:51.512Z,10.90
2017-04-30T00:53:19.831Z,9.83
2017-04-30T00:55:48.122Z,10.72
2017-04-30T00:58:16.451Z,10.02
2017-04-30T01:00:44.736Z,10.75
2017-04-30T01:03:13.016Z,9.65
2017-04-30T01:05:41.339Z,10.10
2017-04-30T01:08:09.632Z,11.95
2017-04-30T01:10:38.710Z,11.63
2017-04-30T01:13:06.998Z,11.33
2017-04-30T01:15:35.296Z,11.08
2017-04-30T01:18:03.604Z,10.78
2017-04-30T01:20:31.883Z,10.67
2017-04-30T01:23:00.200Z,10.42
2017-04-30T01:25:28.487Z,9.78
2017-04-30T01:27:57.513Z,9.93
2017-04-30T01:30:25.821Z,10.02
2017-04-30T01:32:54.100Z,9.55
2017-04-30T01:35:22.420Z,9.58
2017-04-30T01:37:51.445Z,10.28
2017-04-30T01:40:19.731Z,10.85
2017-04-30T01:42:48.041Z,10.47
2017-04-30T01:45:18.466Z,10.18
2017-04-30T01:47:46.795Z,9.60
2017-04-30T01:50:15.087Z,10.28
2017-04-30T01:52:43.379Z,10.53
2017-04-30T01:55:11.683Z,10.37
2017-04-30T01:57:39.980Z,11.07
2017-04-30T02:00:08.295Z,11.30
2017-04-30T02:02:36.581Z,10.68
2017-04-30T02:05:04.860Z,10.40
2017-04-30T02:07:33.176Z,10.07
2017-04-30T02:10:01.446Z,10.48
2017-04-30T02:12:29.720Z,9.07
2017-04-30T02:14:58.032Z,12.12
2017-04-30T02:17:26.334Z,12.78
2017-04-30T02:19:54.627Z,11.68
2017-04-30T02:22:22.939Z,12.98
2017-04-30T02:24:51.215Z,11.17
2017-04-30T02:27:19.496Z,12.63
2017-04-30T02:29:47.827Z,12.58
2017-04-30T02:32:16.135Z,12.43
2017-04-30T02:34:44.412Z,14.03
2017-04-30T02:37:12.730Z,12.90
2017-04-30T02:39:41.008Z,13.07
2017-04-30T02:42:09.289Z,14.23
2017-04-30T02:44:37.608Z,13.13
2017-04-30T02:47:05.909Z,12.18
2017-04-30T02:49:34.201Z,13.13
2017-04-30T02:52:02.538Z,12.33
2017-04-30T02:54:30.820Z,13.48
2017-04-30T02:56:59.101Z,12.45
2017-04-30T02:59:27.436Z,13.37
2017-04-30T03:01:55.713Z,13.93
2017-04-30T03:04:24.002Z,12.92
2017-04-30T03:06:53.051Z,13.12
2017-04-30T03:09:21.333Z,11.62
2017-04-30T03:11:49.620Z,11.22
2017-04-30T03:14:17.945Z,11.87
2017-04-30T03:16:46.967Z,11.65
2017-04-30T03:19:15.255Z,11.65
2017-04-30T03:21:43.576Z,11.25
2017-04-30T03:24:12.621Z,12.08
2017-04-30T03:26:40.944Z,10.83
2017-04-30T03:29:09.256Z,12.48
2017-04-30T03:31:37.561Z,13.22
2017-04-30T03:34:05.840Z,12.50
2017-04-30T03:36:34.208Z,11.80
2017-04-30T03:39:14.573Z,13.70
2017-04-30T03:41:54.695Z,12.85
2017-04-30T03:44:35.548Z,13.25
2017-04-30T03:47:15.650Z,14.08
2017-04-30T03:49:56.854Z,13.85
2017-04-30T03:52:37.116Z,13.32
2017-04-30T03:55:17.220Z,13.75
2017-04-30T03:57:58.337Z,14.93
2017-04-30T04:00:38.425Z,15.28
2017-04-30T04:03:18.693Z,16.62
2017-04-30T04:05:58.810Z,15.08
2017-04-30T04:08:38.956Z,16.10
2017-04-30T04:11:19.105Z,13.35
2017-04-30T04:13:59.157Z,14.13
2017-04-30T04:16:39.456Z,13.53
2017-04-30T04:19:19.614Z,15.30
2017-04-30T04:21:59.768Z,14.90
2017-04-30T04:24:39.947Z,14.02
2017-04-30T04:27:20.029Z,14.23
2017-04-30T04:30:00.248Z,15.90
2017-04-30T04:32:40.361Z,14.47
2017-04-30T04:35:20.564Z,14.53
2017-04-30T04:38:00.719Z,16.18
2017-04-30T04:40:40.963Z,16.72
2017-04-30T04:43:21.056Z,15.87
2017-04-30T04:46:01.255Z,17.17
2017-04-30T04:48:41.412Z,15.42
2017-04-30T04:51:21.795Z,16.02
2017-04-30T04:54:01.767Z,16.67
2017-04-30T04:56:41.912Z,15.57
2017-04-30T04:59:22.084Z,16.50
2017-04-30T06:08:07.081Z,11.10
2017-04-30T06:10:47.126Z,10.48
2017-04-30T06:13:27.405Z,11.32
2017-04-30T06:16:07.413Z,10.47
2017-04-30T06:18:48.306Z,10.78
2017-04-30T06:21:28.369Z,10.02
2017-04-30T06:24:08.605Z,10.03
2017-04-30T06:26:48.634Z,10.57
2017-04-30T06:29:28.832Z,10.05
2017-04-30T06:32:08.885Z,10.33
2017-04-30T06:34:49.158Z,9.65
2017-04-30T06:37:29.178Z,9.25
2017-04-30T06:40:10.102Z,9.17
2017-04-30T06:42:50.067Z,8.63
2017-04-30T06:45:30.297Z,9.72
2017-04-30T06:48:10.404Z,9.28
2017-04-30T06:50:51.341Z,10.10
2017-04-30T06:53:31.314Z,9.10
2017-04-30T06:56:11.540Z,10.23
2017-04-30T06:58:51.526Z,10.07
2017-04-30T07:01:31.788Z,10.75
2017-04-30T07:04:11.888Z,10.22
2017-04-30T07:09:42.256Z,10.27
2017-04-30T07:12:22.390Z,10.48
2017-04-30T07:15:02.506Z,10.53
2017-04-30T07:17:42.726Z,10.52
2017-04-30T07:20:22.728Z,8.80
2017-04-30T07:23:03.537Z,8.63
2017-04-30T07:25:43.605Z,9.60
2017-04-30T07:28:23.862Z,8.03
2017-04-30T07:31:04.374Z,8.83
2017-04-30T07:33:45.410Z,8.80
2017-04-30T07:36:25.569Z,7.57
2017-04-30T07:39:05.706Z,8.27
2017-04-30T07:41:45.823Z,7.63
2017-04-30T07:44:14.885Z,8.13
2017-04-30T07:46:43.184Z,7.22
2017-04-30T07:49:12.211Z,8.17
2017-04-30T07:51:40.544Z,6.35
2017-04-30T07:54:08.840Z,5.92
2017-04-30T07:56:37.880Z,6.72
2017-04-30T07:59:06.198Z,6.87
2017-04-30T08:01:34.492Z,6.45
2017-04-30T08:04:03.522Z,7.08
2017-04-30T08:06:31.843Z,6.17
2017-04-30T08:09:00.151Z,6.57
2017-04-30T08:11:29.178Z,6.83
2017-04-30T08:13:57.508Z,6.38
2017-04-30T08:16:25.788Z,6.55
2017-04-30T08:18:57.280Z,6.40
2017-04-30T08:21:25.611Z,6.18
2017-04-30T08:23:53.908Z,6.52
2017-04-30T08:26:22.986Z,6.50
2017-04-30T08:28:51.273Z,6.83
2017-04-30T08:31:20.317Z,5.98
2017-04-30T08:33:48.703Z,5.50
2017-04-30T08:36:16.990Z,5.73
2017-04-30T08:38:45.274Z,6.57
2017-04-30T08:41:13.597Z,6.13
2017-04-30T08:43:42.629Z,5.78
2017-04-30T08:46:10.919Z,6.33
2017-04-30T08:48:39.245Z,5.72
2017-04-30T08:51:08.278Z,5.82
2017-04-30T08:53:36.572Z,5.67
2017-04-30T08:56:04.897Z,6.13
2017-04-30T08:58:33.925Z,5.23
2017-04-30T09:01:02.214Z,5.82
2017-04-30T09:03:30.551Z,5.72
2017-04-30T09:05:58.839Z,5.47
2017-04-30T09:08:27.865Z,5.63
2017-04-30T09:10:56.186Z,6.50
2017-04-30T09:13:24.474Z,6.22
2017-04-30T09:15:52.773Z,6.23
2017-04-30T09:18:21.837Z,5.42
2017-04-30T09:20:50.120Z,5.45
2017-04-30T09:23:18.399Z,6.07
2017-04-30T09:25:46.729Z,6.48
2017-04-30T09:28:15.021Z,6.20
2017-04-30T09:30:43.314Z,6.52
2017-04-30T09:33:11.646Z,5.33
2017-04-30T09:35:39.937Z,5.68
2017-04-30T09:38:08.217Z,6.25
2017-04-30T09:40:36.545Z,5.42
2017-04-30T09:43:04.834Z,6.13
2017-04-30T09:45:33.118Z,6.48
2017-04-30T09:48:02.201Z,6.57
2017-04-30T09:50:30.487Z,6.02
2017-04-30T09:52:59.531Z,5.28
2017-04-30T09:55:27.854Z,7.35
2017-04-30T09:57:56.138Z,5.97
2017-04-30T10:00:25.163Z,6.47
2017-04-30T10:02:53.493Z,5.67
2017-04-30T10:05:21.785Z,5.40
2017-04-30T10:07:50.082Z,5.67
2017-04-30T10:10:19.151Z,5.50
2017-04-30T10:12:47.443Z,6.47
2017-04-30T10:15:16.484Z,6.65
2017-04-30T10:17:44.818Z,6.28
2017-04-30T10:20:13.854Z,5.68
2017-04-30T10:22:42.154Z,6.13
2017-04-30T10:25:10.492Z,6.35
2017-04-30T10:27:38.017Z,5.40
2017-04-30T10:30:06.335Z,5.28
2017-04-30T10:32:34.681Z,4.25
2017-04-30T10:35:02.968Z,4.68
2017-04-30T10:37:32.002Z,4.32
2017-04-30T10:40:00.338Z,3.45
2017-04-30T10:42:29.370Z,4.17
2017-04-30T10:44:57.665Z,4.02
2017-04-30T10:47:26.010Z,3.53
2017-04-30T10:49:54.295Z,3.15
2017-04-30T10:52:22.586Z,3.68
2017-04-30T10:54:50.915Z,3.25
2017-04-30T10:57:19.203Z,4.03
2017-04-30T10:59:48.233Z,3.80
2017-04-30T11:02:16.573Z,3.72
2017-04-30T11:04:44.861Z,3.38
2017-04-30T11:07:13.890Z,3.08
2017-04-30T11:09:42.225Z,2.63
2017-04-30T11:12:10.510Z,3.43
2017-04-30T11:14:39.572Z,3.10
2017-04-30T11:17:07.907Z,3.78
2017-04-30T11:19:36.194Z,2.57
2017-04-30T11:22:04.489Z,2.75
2017-04-30T11:24:32.817Z,2.73
2017-04-30T11:27:01.857Z,3.03
2017-04-30T11:29:30.144Z,2.25
2017-04-30T11:31:58.484Z,2.37
2017-04-30T11:34:27.514Z,3.28
2017-04-30T11:36:55.816Z,2.43
2017-04-30T11:39:24.215Z,2.38
2017-04-30T11:41:52.655Z,2.47
2017-04-30T11:44:20.962Z,2.40
2017-04-30T11:46:49.315Z,2.32
2017-04-30T11:49:17.620Z,1.95
2017-04-30T11:51:45.924Z,2.55
2017-04-30T11:54:14.403Z,2.40
2017-04-30T11:56:42.819Z,1.90
2017-04-30T11:59:11.121Z,2.38
2017-04-30T12:01:39.458Z,2.90
2017-04-30T12:04:07.757Z,2.55
2017-04-30T12:06:36.042Z,2.80
2017-04-30T12:09:04.485Z,3.18
2017-04-30T12:11:32.892Z,2.45
2017-04-30T12:14:01.189Z,2.60
2017-04-30T12:16:29.676Z,2.17
2017-04-30T12:18:57.981Z,1.72
2017-04-30T12:21:26.331Z,1.97
2017-04-30T12:23:54.622Z,1.92
2017-04-30T12:26:22.914Z,2.02
2017-04-30T12:28:51.245Z,2.18
2017-04-30T12:31:19.538Z,1.92
2017-04-30T12:33:47.843Z,2.10
2017-04-30T12:36:16.178Z,2.27
2017-04-30T12:38:44.485Z,2.10
2017-04-30T12:41:12.781Z,1.93
2017-04-30T12:43:41.125Z,1.88
2017-04-30T12:46:09.409Z,2.23
2017-04-30T12:48:37.705Z,2.43
2017-04-30T12:51:06.041Z,2.47
2017-04-30T12:53:34.342Z,2.27
2017-04-30T12:56:02.852Z,2.57
2017-04-30T12:58:31.170Z,2.15
2017-04-30T13:01:00.208Z,3.42
2017-04-30T13:03:28.521Z,2.35
2017-04-30T13:05:56.849Z,2.60
2017-04-30T13:08:25.146Z,2.30
2017-04-30T13:10:53.453Z,2.42
2017-04-30T13:13:21.793Z,2.63
2017-04-30T13:15:50.088Z,2.10
2017-04-30T13:18:18.395Z,2.00
2017-04-30T13:20:46.709Z,2.18
2017-04-30T13:23:15.005Z,1.97
2017-04-30T13:25:43.298Z,2.02
2017-04-30T13:28:11.621Z,1.82
2017-04-30T13:30:40.689Z,2.13
2017-04-30T13:33:09.017Z,2.10
2017-04-30T13:35:37.329Z,2.52
2017-04-30T13:38:05.670Z,1.80
2017-04-30T13:40:33.976Z,2.27
2017-04-30T13:43:02.277Z,2.40
2017-04-30T13:45:30.617Z,2.42
2017-04-30T13:47:58.905Z,2.25
2017-04-30T13:50:27.212Z,2.38
2017-04-30T13:52:55.546Z,2.47
2017-04-30T13:55:23.845Z,2.28
2017-04-30T13:57:52.138Z,2.00
2017-04-30T14:00:20.473Z,2.35
2017-04-30T14:02:49.522Z,2.12
2017-04-30T14:05:17.827Z,2.20
2017-04-30T14:07:46.161Z,2.60
2017-04-30T14:10:14.461Z,2.95
2017-04-30T14:12:42.759Z,2.57
2017-04-30T14:15:11.086Z,2.50
2017-04-30T14:17:39.389Z,2.42
2017-04-30T14:20:07.691Z,2.30
2017-04-30T14:22:36.025Z,2.25
2017-04-30T14:25:04.322Z,2.62
2017-04-30T14:27:32.617Z,2.48
2017-04-30T14:30:00.957Z,2.10
2017-04-30T14:32:29.254Z,2.27
2017-04-30T14:34:57.564Z,2.42
2017-04-30T14:37:25.901Z,2.35
2017-04-30T14:39:54.202Z,2.33
2017-04-30T14:42:22.501Z,2.20
2017-04-30T14:44:50.830Z,2.30
2017-04-30T14:47:19.121Z,2.20
2017-04-30T14:49:47.421Z,1.65
2017-04-30T14:52:15.757Z,2.40
2017-04-30T14:54:44.054Z,2.18
2017-04-30T14:57:12.345Z,2.22
2017-04-30T14:59:40.685Z,2.42
2017-04-30T15:02:08.972Z,1.70
2017-04-30T15:04:37.270Z,2.20
2017-04-30T15:07:05.608Z,2.26
2017-04-30T15:09:34.625Z,2.26
2017-04-30T15:12:02.922Z,2.38
2017-04-30T15:14:31.257Z,2.72
2017-04-30T15:17:00.293Z,2.20
2017-04-30T15:19:28.586Z,2.42
2017-04-30T15:21:56.901Z,2.70
2017-04-30T15:24:25.929Z,2.26
2017-04-30T15:26:54.210Z,2.36
2017-04-30T15:29:22.542Z,2.46
2017-04-30T15:31:50.841Z,3.02
2017-04-30T15:34:19.124Z,2.46
2017-04-30T15:36:47.451Z,2.10
2017-04-30T15:39:15.737Z,2.24
2017-04-30T15:41:44.013Z,2.56
2017-04-30T15:44:12.339Z,2.20
2017-04-30T15:46:40.644Z,2.40
2017-04-30T15:49:08.927Z,2.78
2017-04-30T15:51:37.250Z,2.68
2017-04-30T15:54:05.533Z,2.18
2017-04-30T15:56:34.578Z,2.22
2017-04-30T15:59:02.906Z,2.36
2017-04-30T16:01:31.194Z,2.30
2017-04-30T16:04:00.239Z,2.46
2017-04-30T16:06:28.566Z,2.30
2017-04-30T16:08:57.592Z,3.00
2017-04-30T16:11:25.890Z,4.40
2017-04-30T16:13:54.233Z,3.86
2017-04-30T16:16:22.522Z,2.40
2017-04-30T16:18:50.811Z,2.32
2017-04-30T16:21:19.133Z,2.65
2017-04-30T16:23:47.426Z,2.47
2017-04-30T16:26:15.729Z,2.40
2017-04-30T16:28:44.064Z,2.20
2017-04-30T16:31:12.346Z,2.62
2017-04-30T16:33:40.637Z,2.27
2017-04-30T16:36:08.962Z,2.18
2017-04-30T16:38:37.247Z,2.28
2017-04-30T16:41:05.527Z,2.20
2017-04-30T16:43:33.854Z,3.50
2017-04-30T16:46:02.138Z,2.20
2017-04-30T16:48:31.169Z,2.93
2017-04-30T16:50:59.486Z,2.75
2017-04-30T16:53:27.770Z,2.12
2017-04-30T16:55:56.065Z,2.82
2017-04-30T16:58:25.143Z,2.47
2017-04-30T17:00:53.433Z,2.27
2017-04-30T17:03:21.726Z,2.47
2017-04-30T17:05:50.056Z,2.65
2017-04-30T17:08:18.341Z,2.65
2017-04-30T17:10:46.638Z,2.45
2017-04-30T17:13:14.952Z,2.83
2017-04-30T17:15:43.241Z,2.95
2017-04-30T17:18:11.533Z,3.35
2017-04-30T17:20:39.850Z,2.97
2017-04-30T17:23:08.129Z,3.52
2017-04-30T17:25:36.414Z,2.95
2017-04-30T17:28:04.751Z,2.93
2017-04-30T17:30:33.034Z,2.88
2017-04-30T17:33:01.312Z,2.85
2017-04-30T17:35:29.712Z,2.62
2017-04-30T17:37:58.009Z,3.00
2017-04-30T17:40:26.302Z,3.48
2017-04-30T17:42:55.382Z,3.87
2017-04-30T17:45:24.419Z,2.98
2017-04-30T17:47:52.693Z,3.33
2017-04-30T17:50:21.015Z,2.90
2017-04-30T17:52:49.318Z,2.80
2017-04-30T17:55:18.357Z,3.65
2017-04-30T17:57:46.686Z,3.20
2017-04-30T18:00:15.925Z,2.63
2017-04-30T18:02:44.218Z,3.45
2017-04-30T18:05:12.541Z,3.03
2017-04-30T18:07:40.847Z,3.23
2017-04-30T18:10:10.057Z,3.75
2017-04-30T18:12:38.383Z,2.98
2017-04-30T18:15:06.733Z,3.38
2017-04-30T18:17:35.030Z,3.15
2017-04-30T18:20:03.365Z,3.33
2017-04-30T18:22:31.651Z,3.68
2017-04-30T18:24:59.934Z,2.95
2017-04-30T18:27:28.284Z,4.10
2017-04-30T18:29:57.485Z,3.23
2017-04-30T18:32:26.511Z,3.67
2017-04-30T18:34:54.826Z,3.50
2017-04-30T18:37:23.112Z,3.40
2017-04-30T18:39:51.396Z,3.50
2017-04-30T18:42:19.709Z,3.55
2017-04-30T18:44:47.989Z,2.72
2017-04-30T18:47:16.280Z,3.18
2017-04-30T18:49:44.610Z,3.57
2017-04-30T18:52:12.921Z,3.00
2017-04-30T18:54:41.201Z,3.63
2017-04-30T18:57:09.541Z,3.62
2017-04-30T18:59:37.829Z,3.03
2017-04-30T19:02:06.107Z,3.75
2017-04-30T19:04:34.437Z,3.27
2017-04-30T19:07:02.752Z,3.17
2017-04-30T19:09:31.027Z,3.68
2017-04-30T19:11:59.356Z,3.88
2017-04-30T19:14:27.637Z,3.88
2017-04-30T19:16:55.927Z,4.85
2017-04-30T19:19:24.242Z,4.38
2017-04-30T19:21:52.530Z,3.58
2017-04-30T19:24:20.814Z,3.98
2017-04-30T19:26:49.880Z,4.08
2017-04-30T19:29:18.173Z,3.82
2017-04-30T19:31:46.472Z,4.23
2017-04-30T19:34:18.994Z,3.98
2017-04-30T19:36:47.276Z,3.83
2017-04-30T19:39:15.565Z,3.88
2017-04-30T19:41:43.888Z,3.68
2017-04-30T19:44:12.218Z,4.53
2017-04-30T19:46:40.512Z,4.22
2017-04-30T19:49:08.843Z,4.12
2017-04-30T19:51:37.146Z,4.03
2017-04-30T19:54:05.431Z,3.62
2017-04-30T19:56:33.749Z,3.98
2017-04-30T19:59:02.096Z,4.02
2017-04-30T20:01:30.378Z,3.90
2017-04-30T20:03:58.701Z,4.10
2017-04-30T20:06:27.722Z,4.42
2017-04-30T20:08:55.994Z,4.18
2017-04-30T20:11:24.309Z,4.18
2017-04-30T20:13:52.580Z,4.60
2017-04-30T20:16:20.854Z,4.88
2017-04-30T20:18:49.178Z,5.15
2017-04-30T20:21:18.196Z,4.55
2017-04-30T20:23:46.481Z,4.62
2017-04-30T20:26:14.798Z,4.83
2017-04-30T20:28:43.084Z,3.70
2017-04-30T20:31:11.368Z,3.95
2017-04-30T20:33:39.693Z,4.13
2017-04-30T20:36:07.973Z,3.15
2017-04-30T20:38:36.250Z,3.92
2017-04-30T20:41:04.561Z,3.48
2017-04-30T20:43:32.886Z,3.50
2017-04-30T20:46:01.903Z,3.85
2017-04-30T20:48:30.214Z,3.72
2017-04-30T20:50:58.502Z,6.25
2017-04-30T20:53:26.793Z,4.73
2017-04-30T20:55:55.126Z,4.40
2017-04-30T20:58:23.416Z,4.87
2017-04-30T21:00:51.717Z,4.40
2017-04-30T21:03:20.051Z,4.65
2017-04-30T21:05:48.359Z,4.30
2017-04-30T21:08:16.640Z,5.17
2017-04-30T21:10:44.971Z,4.98
2017-04-30T21:13:13.288Z,5.12
2017-04-30T21:15:41.569Z,5.32
2017-04-30T21:18:09.882Z,5.77
2017-04-30T21:20:38.910Z,5.78
2017-04-30T21:23:07.194Z,4.83
2017-04-30T21:25:35.522Z,5.43
2017-04-30T21:28:03.803Z,6.27
2017-04-30T21:30:32.108Z,5.10
2017-04-30T21:33:01.166Z,5.82
2017-04-30T21:35:29.452Z,5.75
2017-04-30T21:37:57.734Z,6.15
2017-04-30T21:40:26.065Z,5.25
2017-04-30T21:42:54.341Z,5.33
2017-04-30T21:45:22.616Z,6.13
2017-04-30T21:47:50.938Z,5.18
2017-04-30T21:50:19.222Z,6.10
2017-04-30T21:52:47.583Z,5.77
2017-04-30T21:55:15.898Z,5.60
2017-04-30T21:57:44.186Z,5.17
2017-04-30T22:00:13.209Z,5.82
2017-04-30T22:02:41.525Z,5.30
2017-04-30T22:05:09.810Z,5.82
2017-04-30T22:07:38.086Z,5.48
2017-04-30T22:10:06.409Z,5.88
2017-04-30T22:12:34.690Z,6.63
2017-04-30T22:15:02.965Z,5.42
2017-04-30T22:17:31.286Z,5.78
2017-04-30T22:19:59.573Z,5.53
2017-04-30T22:22:27.865Z,5.95
2017-04-30T22:24:56.193Z,5.52
2017-04-30T22:27:24.467Z,5.32
2017-04-30T22:29:52.738Z,5.97
2017-04-30T22:32:21.057Z,5.43
2017-04-30T22:34:49.338Z,5.43
2017-04-30T22:37:17.617Z,5.52
2017-04-30T22:39:45.935Z,6.23
2017-04-30T22:42:14.948Z,6.23
2017-04-30T22:44:43.224Z,5.98
2017-04-30T22:47:11.534Z,6.05
2017-04-30T22:49:39.813Z,5.93
2017-04-30T22:52:08.100Z,5.55
2017-04-30T22:54:36.408Z,5.25
2017-04-30T22:57:05.425Z,5.78
2017-04-30T22:59:33.703Z,6.33
2017-04-30T23:02:02.018Z,5.73
2017-04-30T23:04:30.305Z,5.73
2017-04-30T23:06:58.582Z,5.68
2017-04-30T23:09:26.898Z,5.95
2017-04-30T23:11:55.920Z,5.72
2017-04-30T23:14:24.194Z,5.60
2017-04-30T23:16:52.506Z,6.07
2017-04-30T23:19:20.785Z,6.10
2017-04-30T23:21:49.054Z,5.92
2017-04-30T23:24:17.376Z,6.57
2017-04-30T23:26:46.394Z,7.07
2017-04-30T23:29:14.678Z,6.10
2017-04-30T23:31:42.993Z,6.30
2017-04-30T23:34:11.273Z,6.02
2017-04-30T23:36:39.553Z,6.23
2017-04-30T23:39:07.867Z,6.20
2017-04-30T23:41:36.893Z,6.35
2017-04-30T23:44:05.178Z,5.67
2017-04-30T23:46:33.497Z,7.10
2017-04-30T23:49:01.777Z,7.05
2017-04-30T23:51:30.058Z,6.30
2017-04-30T23:53:58.371Z,6.12
2017-04-30T23:56:26.644Z,6.72
2017-04-30T23:58:54.938Z,6.20
